sensor_id;sensor_type;location;lat;lon;timestamp;P1;durP1;ratioP1;P2;durP2;ratioP2
60344;SDS011;46188;52.324;8.032;2023-04-16T00:00:59;44.95;;;24.77;;
60344;SDS011;46188;52.324;8.032;2023-04-16T00:03:24;43.08;;;24.65;;
60344;SDS011;46188;52.324;8.032;2023-04-16T00:05:50;43.97;;;25.20;;
60344;SDS011;46188;52.324;8.032;2023-04-16T00:08:15;40.50;;;24.23;;
60344;SDS011;46188;52.324;8.032;2023-04-16T00:10:41;47.08;;;25.33;;
60344;SDS011;46188;52.324;8.032;2023-04-16T00:13:06;43.22;;;24.63;;
60344;SDS011;46188;52.324;8.032;2023-04-16T00:15:31;39.10;;;24.27;;
60344;SDS011;46188;52.324;8.032;2023-04-16T00:17:57;44.50;;;25.52;;
60344;SDS011;46188;52.324;8.032;2023-04-16T00:20:22;46.95;;;25.10;;
60344;SDS011;46188;52.324;8.032;2023-04-16T00:22:47;46.85;;;24.95;;
60344;SDS011;46188;52.324;8.032;2023-04-16T00:25:13;45.03;;;24.67;;
60344;SDS011;46188;52.324;8.032;2023-04-16T00:27:38;42.78;;;25.13;;
60344;SDS011;46188;52.324;8.032;2023-04-16T00:30:03;41.22;;;24.05;;
60344;SDS011;46188;52.324;8.032;2023-04-16T00:32:30;40.33;;;23.80;;
60344;SDS011;46188;52.324;8.032;2023-04-16T00:34:55;46.05;;;25.40;;
60344;SDS011;46188;52.324;8.032;2023-04-16T00:37:20;43.40;;;25.17;;
60344;SDS011;46188;52.324;8.032;2023-04-16T00:39:45;44.10;;;24.65;;
60344;SDS011;46188;52.324;8.032;2023-04-16T00:42:11;42.22;;;24.55;;
60344;SDS011;46188;52.324;8.032;2023-04-16T00:44:36;47.33;;;25.17;;
60344;SDS011;46188;52.324;8.032;2023-04-16T00:47:02;42.20;;;25.05;;
60344;SDS011;46188;52.324;8.032;2023-04-16T00:49:28;41.38;;;26.50;;
60344;SDS011;46188;52.324;8.032;2023-04-16T00:51:54;44.00;;;26.42;;
60344;SDS011;46188;52.324;8.032;2023-04-16T00:54:19;41.10;;;23.70;;
60344;SDS011;46188;52.324;8.032;2023-04-16T00:56:45;43.38;;;25.30;;
60344;SDS011;46188;52.324;8.032;2023-04-16T00:59:10;40.53;;;24.27;;
60344;SDS011;46188;52.324;8.032;2023-04-16T01:01:36;39.53;;;23.95;;
60344;SDS011;46188;52.324;8.032;2023-04-16T01:04:01;44.60;;;24.40;;
60344;SDS011;46188;52.324;8.032;2023-04-16T01:06:26;47.40;;;24.65;;
60344;SDS011;46188;52.324;8.032;2023-04-16T01:08:52;43.88;;;24.88;;
60344;SDS011;46188;52.324;8.032;2023-04-16T01:11:17;39.67;;;23.98;;
60344;SDS011;46188;52.324;8.032;2023-04-16T01:13:42;46.38;;;24.67;;
60344;SDS011;46188;52.324;8.032;2023-04-16T01:16:08;43.03;;;24.95;;
60344;SDS011;46188;52.324;8.032;2023-04-16T01:18:34;43.70;;;25.45;;
60344;SDS011;46188;52.324;8.032;2023-04-16T01:21:00;44.65;;;25.60;;
60344;SDS011;46188;52.324;8.032;2023-04-16T01:23:26;41.53;;;25.92;;
60344;SDS011;46188;52.324;8.032;2023-04-16T01:25:51;36.92;;;23.30;;
60344;SDS011;46188;52.324;8.032;2023-04-16T01:28:16;41.75;;;25.80;;
60344;SDS011;46188;52.324;8.032;2023-04-16T01:30:41;45.75;;;27.13;;
60344;SDS011;46188;52.324;8.032;2023-04-16T01:33:08;45.42;;;26.30;;
60344;SDS011;46188;52.324;8.032;2023-04-16T01:35:35;41.85;;;27.25;;
60344;SDS011;46188;52.324;8.032;2023-04-16T01:38:00;40.45;;;26.23;;
60344;SDS011;46188;52.324;8.032;2023-04-16T01:40:25;42.17;;;26.92;;
60344;SDS011;46188;52.324;8.032;2023-04-16T01:42:51;40.47;;;26.02;;
60344;SDS011;46188;52.324;8.032;2023-04-16T01:45:16;37.80;;;24.50;;
60344;SDS011;46188;52.324;8.032;2023-04-16T01:47:41;40.60;;;26.15;;
60344;SDS011;46188;52.324;8.032;2023-04-16T01:50:07;38.05;;;23.88;;
60344;SDS011;46188;52.324;8.032;2023-04-16T01:52:33;37.45;;;25.27;;
60344;SDS011;46188;52.324;8.032;2023-04-16T01:54:58;37.10;;;22.90;;
60344;SDS011;46188;52.324;8.032;2023-04-16T01:57:23;43.03;;;24.02;;
60344;SDS011;46188;52.324;8.032;2023-04-16T01:59:49;40.28;;;25.38;;
60344;SDS011;46188;52.324;8.032;2023-04-16T02:02:14;47.58;;;25.65;;
60344;SDS011;46188;52.324;8.032;2023-04-16T02:04:40;39.15;;;24.75;;
60344;SDS011;46188;52.324;8.032;2023-04-16T02:07:07;38.75;;;26.13;;
60344;SDS011;46188;52.324;8.032;2023-04-16T02:09:34;37.05;;;24.70;;
60344;SDS011;46188;52.324;8.032;2023-04-16T02:12:00;39.28;;;25.75;;
60344;SDS011;46188;52.324;8.032;2023-04-16T02:14:29;41.83;;;25.60;;
60344;SDS011;46188;52.324;8.032;2023-04-16T02:16:54;40.97;;;25.60;;
60344;SDS011;46188;52.324;8.032;2023-04-16T02:19:20;35.95;;;24.20;;
60344;SDS011;46188;52.324;8.032;2023-04-16T02:21:45;38.08;;;24.90;;
60344;SDS011;46188;52.324;8.032;2023-04-16T02:24:11;41.70;;;24.45;;
60344;SDS011;46188;52.324;8.032;2023-04-16T02:26:36;37.47;;;24.15;;
60344;SDS011;46188;52.324;8.032;2023-04-16T02:29:02;36.45;;;24.08;;
60344;SDS011;46188;52.324;8.032;2023-04-16T02:31:27;38.45;;;24.23;;
60344;SDS011;46188;52.324;8.032;2023-04-16T02:33:53;39.42;;;25.85;;
60344;SDS011;46188;52.324;8.032;2023-04-16T02:36:18;38.25;;;25.10;;
60344;SDS011;46188;52.324;8.032;2023-04-16T02:38:44;42.92;;;26.20;;
60344;SDS011;46188;52.324;8.032;2023-04-16T02:41:09;41.17;;;25.70;;
60344;SDS011;46188;52.324;8.032;2023-04-16T02:43:35;39.80;;;25.48;;
60344;SDS011;46188;52.324;8.032;2023-04-16T02:46:00;41.85;;;25.48;;
60344;SDS011;46188;52.324;8.032;2023-04-16T02:48:25;37.25;;;24.60;;
60344;SDS011;46188;52.324;8.032;2023-04-16T02:50:50;45.13;;;25.02;;
60344;SDS011;46188;52.324;8.032;2023-04-16T02:53:16;40.13;;;24.88;;
60344;SDS011;46188;52.324;8.032;2023-04-16T02:55:45;40.08;;;25.08;;
60344;SDS011;46188;52.324;8.032;2023-04-16T02:58:18;41.00;;;25.25;;
60344;SDS011;46188;52.324;8.032;2023-04-16T03:00:43;40.63;;;24.95;;
60344;SDS011;46188;52.324;8.032;2023-04-16T03:03:09;41.15;;;24.52;;
60344;SDS011;46188;52.324;8.032;2023-04-16T03:05:34;38.03;;;24.80;;
60344;SDS011;46188;52.324;8.032;2023-04-16T03:07:59;37.72;;;24.83;;
60344;SDS011;46188;52.324;8.032;2023-04-16T03:10:25;39.67;;;24.45;;
60344;SDS011;46188;52.324;8.032;2023-04-16T03:12:50;38.65;;;25.30;;
60344;SDS011;46188;52.324;8.032;2023-04-16T03:15:15;42.60;;;27.80;;
60344;SDS011;46188;52.324;8.032;2023-04-16T03:17:41;41.00;;;25.63;;
60344;SDS011;46188;52.324;8.032;2023-04-16T03:20:06;38.33;;;25.90;;
60344;SDS011;46188;52.324;8.032;2023-04-16T03:22:32;42.75;;;26.95;;
60344;SDS011;46188;52.324;8.032;2023-04-16T03:24:57;42.03;;;26.63;;
60344;SDS011;46188;52.324;8.032;2023-04-16T03:27:22;42.78;;;27.55;;
60344;SDS011;46188;52.324;8.032;2023-04-16T03:29:48;47.95;;;27.67;;
60344;SDS011;46188;52.324;8.032;2023-04-16T03:32:13;40.78;;;26.75;;
60344;SDS011;46188;52.324;8.032;2023-04-16T03:34:38;41.78;;;26.65;;
60344;SDS011;46188;52.324;8.032;2023-04-16T03:37:03;45.13;;;27.85;;
60344;SDS011;46188;52.324;8.032;2023-04-16T03:39:30;48.55;;;27.70;;
60344;SDS011;46188;52.324;8.032;2023-04-16T03:41:55;43.67;;;27.33;;
60344;SDS011;46188;52.324;8.032;2023-04-16T03:44:21;40.63;;;26.40;;
60344;SDS011;46188;52.324;8.032;2023-04-16T03:46:46;42.55;;;28.23;;
60344;SDS011;46188;52.324;8.032;2023-04-16T03:49:11;47.33;;;28.63;;
60344;SDS011;46188;52.324;8.032;2023-04-16T03:51:36;44.13;;;28.23;;
60344;SDS011;46188;52.324;8.032;2023-04-16T03:54:02;41.25;;;27.00;;
60344;SDS011;46188;52.324;8.032;2023-04-16T03:56:27;40.17;;;27.00;;
60344;SDS011;46188;52.324;8.032;2023-04-16T03:58:52;43.70;;;27.00;;
60344;SDS011;46188;52.324;8.032;2023-04-16T04:01:17;45.38;;;27.23;;
60344;SDS011;46188;52.324;8.032;2023-04-16T04:03:43;41.47;;;27.83;;
60344;SDS011;46188;52.324;8.032;2023-04-16T04:06:08;49.53;;;28.48;;
60344;SDS011;46188;52.324;8.032;2023-04-16T04:08:33;44.85;;;28.27;;
60344;SDS011;46188;52.324;8.032;2023-04-16T04:10:59;41.40;;;27.90;;
60344;SDS011;46188;52.324;8.032;2023-04-16T04:13:24;45.90;;;29.50;;
60344;SDS011;46188;52.324;8.032;2023-04-16T04:15:49;47.17;;;30.35;;
60344;SDS011;46188;52.324;8.032;2023-04-16T04:18:15;44.53;;;28.80;;
60344;SDS011;46188;52.324;8.032;2023-04-16T04:20:40;48.22;;;29.67;;
60344;SDS011;46188;52.324;8.032;2023-04-16T04:23:05;42.03;;;28.42;;
60344;SDS011;46188;52.324;8.032;2023-04-16T04:25:31;50.35;;;30.08;;
60344;SDS011;46188;52.324;8.032;2023-04-16T04:27:56;45.08;;;28.70;;
60344;SDS011;46188;52.324;8.032;2023-04-16T04:30:21;43.05;;;28.35;;
60344;SDS011;46188;52.324;8.032;2023-04-16T04:32:46;50.72;;;29.35;;
60344;SDS011;46188;52.324;8.032;2023-04-16T04:35:12;43.55;;;28.33;;
60344;SDS011;46188;52.324;8.032;2023-04-16T04:37:37;46.83;;;29.35;;
60344;SDS011;46188;52.324;8.032;2023-04-16T04:40:02;48.08;;;29.08;;
60344;SDS011;46188;52.324;8.032;2023-04-16T04:42:28;50.03;;;28.02;;
60344;SDS011;46188;52.324;8.032;2023-04-16T04:44:53;46.63;;;29.00;;
60344;SDS011;46188;52.324;8.032;2023-04-16T04:47:18;44.72;;;29.73;;
60344;SDS011;46188;52.324;8.032;2023-04-16T04:49:43;47.72;;;28.33;;
60344;SDS011;46188;52.324;8.032;2023-04-16T04:52:08;45.85;;;29.05;;
60344;SDS011;46188;52.324;8.032;2023-04-16T04:54:34;47.13;;;28.00;;
60344;SDS011;46188;52.324;8.032;2023-04-16T04:56:59;47.22;;;28.33;;
60344;SDS011;46188;52.324;8.032;2023-04-16T04:59:25;43.65;;;27.55;;
60344;SDS011;46188;52.324;8.032;2023-04-16T05:01:50;45.20;;;28.95;;
60344;SDS011;46188;52.324;8.032;2023-04-16T05:04:16;47.55;;;28.63;;
60344;SDS011;46188;52.324;8.032;2023-04-16T05:06:41;43.65;;;27.27;;
60344;SDS011;46188;52.324;8.032;2023-04-16T05:09:07;44.80;;;28.48;;
60344;SDS011;46188;52.324;8.032;2023-04-16T05:11:35;51.42;;;29.73;;
60344;SDS011;46188;52.324;8.032;2023-04-16T05:14:04;45.47;;;27.80;;
60344;SDS011;46188;52.324;8.032;2023-04-16T05:16:30;42.65;;;28.05;;
60344;SDS011;46188;52.324;8.032;2023-04-16T05:18:55;42.03;;;27.42;;
60344;SDS011;46188;52.324;8.032;2023-04-16T05:21:21;40.20;;;27.67;;
60344;SDS011;46188;52.324;8.032;2023-04-16T05:23:47;40.47;;;27.38;;
60344;SDS011;46188;52.324;8.032;2023-04-16T05:26:12;42.97;;;27.67;;
60344;SDS011;46188;52.324;8.032;2023-04-16T05:28:37;41.85;;;28.38;;
60344;SDS011;46188;52.324;8.032;2023-04-16T05:31:02;41.25;;;26.42;;
60344;SDS011;46188;52.324;8.032;2023-04-16T05:33:28;42.70;;;26.35;;
60344;SDS011;46188;52.324;8.032;2023-04-16T05:35:53;39.80;;;26.92;;
60344;SDS011;46188;52.324;8.032;2023-04-16T05:38:18;35.88;;;24.73;;
60344;SDS011;46188;52.324;8.032;2023-04-16T05:40:43;42.70;;;25.67;;
60344;SDS011;46188;52.324;8.032;2023-04-16T05:43:09;39.15;;;25.67;;
60344;SDS011;46188;52.324;8.032;2023-04-16T05:45:34;38.08;;;26.27;;
60344;SDS011;46188;52.324;8.032;2023-04-16T05:48:05;38.85;;;25.73;;
60344;SDS011;46188;52.324;8.032;2023-04-16T05:50:31;36.85;;;25.08;;
60344;SDS011;46188;52.324;8.032;2023-04-16T05:52:56;38.88;;;25.50;;
60344;SDS011;46188;52.324;8.032;2023-04-16T05:55:21;34.55;;;24.50;;
60344;SDS011;46188;52.324;8.032;2023-04-16T05:57:47;34.40;;;23.92;;
60344;SDS011;46188;52.324;8.032;2023-04-16T06:00:12;40.55;;;26.58;;
60344;SDS011;46188;52.324;8.032;2023-04-16T06:02:37;37.08;;;24.95;;
60344;SDS011;46188;52.324;8.032;2023-04-16T06:05:03;36.97;;;25.73;;
60344;SDS011;46188;52.324;8.032;2023-04-16T06:07:28;40.58;;;26.00;;
60344;SDS011;46188;52.324;8.032;2023-04-16T06:09:54;42.42;;;25.77;;
60344;SDS011;46188;52.324;8.032;2023-04-16T06:12:19;43.25;;;25.85;;
60344;SDS011;46188;52.324;8.032;2023-04-16T06:14:45;38.00;;;25.33;;
60344;SDS011;46188;52.324;8.032;2023-04-16T06:17:10;36.13;;;25.38;;
60344;SDS011;46188;52.324;8.032;2023-04-16T06:19:36;36.25;;;25.13;;
60344;SDS011;46188;52.324;8.032;2023-04-16T06:22:01;39.22;;;24.92;;
60344;SDS011;46188;52.324;8.032;2023-04-16T06:24:26;40.50;;;26.17;;
60344;SDS011;46188;52.324;8.032;2023-04-16T06:26:51;38.58;;;26.48;;
60344;SDS011;46188;52.324;8.032;2023-04-16T06:29:18;35.40;;;24.45;;
60344;SDS011;46188;52.324;8.032;2023-04-16T06:31:43;38.38;;;25.38;;
60344;SDS011;46188;52.324;8.032;2023-04-16T06:34:08;42.17;;;25.33;;
60344;SDS011;46188;52.324;8.032;2023-04-16T06:36:34;42.97;;;26.92;;
60344;SDS011;46188;52.324;8.032;2023-04-16T06:39:01;38.83;;;25.55;;
60344;SDS011;46188;52.324;8.032;2023-04-16T06:41:26;36.13;;;25.08;;
60344;SDS011;46188;52.324;8.032;2023-04-16T06:43:52;36.83;;;25.27;;
60344;SDS011;46188;52.324;8.032;2023-04-16T06:46:17;37.95;;;26.00;;
60344;SDS011;46188;52.324;8.032;2023-04-16T06:48:43;35.65;;;23.95;;
60344;SDS011;46188;52.324;8.032;2023-04-16T06:51:08;37.42;;;27.42;;
60344;SDS011;46188;52.324;8.032;2023-04-16T06:53:33;34.25;;;24.15;;
60344;SDS011;46188;52.324;8.032;2023-04-16T06:55:59;36.50;;;24.38;;
60344;SDS011;46188;52.324;8.032;2023-04-16T06:58:24;37.85;;;25.27;;
60344;SDS011;46188;52.324;8.032;2023-04-16T07:00:49;38.72;;;26.52;;
60344;SDS011;46188;52.324;8.032;2023-04-16T07:03:14;33.72;;;25.38;;
60344;SDS011;46188;52.324;8.032;2023-04-16T07:05:40;35.95;;;26.23;;
60344;SDS011;46188;52.324;8.032;2023-04-16T07:08:05;37.65;;;25.48;;
60344;SDS011;46188;52.324;8.032;2023-04-16T07:10:30;36.60;;;24.95;;
60344;SDS011;46188;52.324;8.032;2023-04-16T07:12:56;34.63;;;24.98;;
60344;SDS011;46188;52.324;8.032;2023-04-16T07:15:21;33.92;;;24.38;;
60344;SDS011;46188;52.324;8.032;2023-04-16T07:17:46;37.65;;;25.88;;
60344;SDS011;46188;52.324;8.032;2023-04-16T07:20:12;34.15;;;24.00;;
60344;SDS011;46188;52.324;8.032;2023-04-16T07:22:37;35.33;;;25.40;;
60344;SDS011;46188;52.324;8.032;2023-04-16T07:25:02;34.58;;;24.50;;
60344;SDS011;46188;52.324;8.032;2023-04-16T07:27:28;35.88;;;23.88;;
60344;SDS011;46188;52.324;8.032;2023-04-16T07:29:53;35.15;;;24.58;;
60344;SDS011;46188;52.324;8.032;2023-04-16T07:32:20;37.47;;;25.20;;
60344;SDS011;46188;52.324;8.032;2023-04-16T07:34:46;39.15;;;25.33;;
60344;SDS011;46188;52.324;8.032;2023-04-16T07:37:11;38.70;;;26.08;;
60344;SDS011;46188;52.324;8.032;2023-04-16T07:39:36;35.25;;;25.75;;
60344;SDS011;46188;52.324;8.032;2023-04-16T07:42:02;38.03;;;24.92;;
60344;SDS011;46188;52.324;8.032;2023-04-16T07:44:27;35.15;;;25.55;;
60344;SDS011;46188;52.324;8.032;2023-04-16T07:46:53;36.08;;;25.63;;
60344;SDS011;46188;52.324;8.032;2023-04-16T07:49:18;34.88;;;26.65;;
60344;SDS011;46188;52.324;8.032;2023-04-16T07:51:44;34.70;;;24.77;;
60344;SDS011;46188;52.324;8.032;2023-04-16T07:54:09;33.80;;;23.67;;
60344;SDS011;46188;52.324;8.032;2023-04-16T07:56:34;33.10;;;24.95;;
60344;SDS011;46188;52.324;8.032;2023-04-16T07:59:00;31.83;;;23.73;;
60344;SDS011;46188;52.324;8.032;2023-04-16T08:01:25;34.05;;;24.48;;
60344;SDS011;46188;52.324;8.032;2023-04-16T08:03:50;35.80;;;24.70;;
60344;SDS011;46188;52.324;8.032;2023-04-16T08:06:16;32.10;;;23.90;;
60344;SDS011;46188;52.324;8.032;2023-04-16T08:08:41;32.95;;;24.15;;
60344;SDS011;46188;52.324;8.032;2023-04-16T08:11:06;36.58;;;23.75;;
60344;SDS011;46188;52.324;8.032;2023-04-16T08:13:32;33.20;;;23.52;;
60344;SDS011;46188;52.324;8.032;2023-04-16T08:15:57;30.48;;;23.15;;
60344;SDS011;46188;52.324;8.032;2023-04-16T08:18:22;32.33;;;24.35;;
60344;SDS011;46188;52.324;8.032;2023-04-16T08:20:48;32.15;;;23.67;;
60344;SDS011;46188;52.324;8.032;2023-04-16T08:23:13;31.08;;;22.23;;
60344;SDS011;46188;52.324;8.032;2023-04-16T08:25:38;32.25;;;24.05;;
60344;SDS011;46188;52.324;8.032;2023-04-16T08:28:03;29.80;;;22.88;;
60344;SDS011;46188;52.324;8.032;2023-04-16T08:30:29;31.50;;;23.17;;
60344;SDS011;46188;52.324;8.032;2023-04-16T08:32:54;32.08;;;22.67;;
60344;SDS011;46188;52.324;8.032;2023-04-16T08:35:20;31.80;;;22.38;;
60344;SDS011;46188;52.324;8.032;2023-04-16T08:37:45;28.33;;;21.70;;
60344;SDS011;46188;52.324;8.032;2023-04-16T08:40:11;29.85;;;20.40;;
60344;SDS011;46188;52.324;8.032;2023-04-16T08:42:39;30.35;;;21.80;;
60344;SDS011;46188;52.324;8.032;2023-04-16T08:45:13;26.40;;;20.33;;
60344;SDS011;46188;52.324;8.032;2023-04-16T08:47:48;29.33;;;20.48;;
60344;SDS011;46188;52.324;8.032;2023-04-16T08:50:15;28.05;;;21.77;;
60344;SDS011;46188;52.324;8.032;2023-04-16T08:52:44;29.30;;;20.52;;
60344;SDS011;46188;52.324;8.032;2023-04-16T08:55:14;26.27;;;20.20;;
60344;SDS011;46188;52.324;8.032;2023-04-16T08:57:45;24.08;;;18.92;;
60344;SDS011;46188;52.324;8.032;2023-04-16T09:00:13;27.80;;;19.65;;
60344;SDS011;46188;52.324;8.032;2023-04-16T09:02:40;24.73;;;19.67;;
60344;SDS011;46188;52.324;8.032;2023-04-16T09:05:06;26.40;;;18.83;;
60344;SDS011;46188;52.324;8.032;2023-04-16T09:07:32;25.15;;;19.27;;
60344;SDS011;46188;52.324;8.032;2023-04-16T09:09:58;29.17;;;19.27;;
60344;SDS011;46188;52.324;8.032;2023-04-16T09:12:25;25.30;;;20.23;;
60344;SDS011;46188;52.324;8.032;2023-04-16T09:14:50;27.48;;;20.08;;
60344;SDS011;46188;52.324;8.032;2023-04-16T09:17:19;23.13;;;17.38;;
60344;SDS011;46188;52.324;8.032;2023-04-16T09:19:45;24.05;;;18.67;;
60344;SDS011;46188;52.324;8.032;2023-04-16T09:22:10;27.10;;;18.92;;
60344;SDS011;46188;52.324;8.032;2023-04-16T09:24:36;23.45;;;17.85;;
60344;SDS011;46188;52.324;8.032;2023-04-16T09:27:02;27.92;;;18.45;;
60344;SDS011;46188;52.324;8.032;2023-04-16T09:29:32;25.67;;;18.35;;
60344;SDS011;46188;52.324;8.032;2023-04-16T09:32:03;22.60;;;18.25;;
60344;SDS011;46188;52.324;8.032;2023-04-16T09:34:33;22.00;;;17.85;;
60344;SDS011;46188;52.324;8.032;2023-04-16T09:37:18;22.70;;;18.23;;
60344;SDS011;46188;52.324;8.032;2023-04-16T09:39:44;21.88;;;17.88;;
60344;SDS011;46188;52.324;8.032;2023-04-16T09:42:20;24.60;;;17.38;;
60344;SDS011;46188;52.324;8.032;2023-04-16T09:44:48;23.08;;;18.23;;
60344;SDS011;46188;52.324;8.032;2023-04-16T09:47:13;24.90;;;17.52;;
60344;SDS011;46188;52.324;8.032;2023-04-16T09:49:42;24.98;;;17.85;;
60344;SDS011;46188;52.324;8.032;2023-04-16T09:52:11;25.75;;;17.20;;
60344;SDS011;46188;52.324;8.032;2023-04-16T09:54:43;21.75;;;16.88;;
60344;SDS011;46188;52.324;8.032;2023-04-16T09:57:10;26.48;;;17.63;;
60344;SDS011;46188;52.324;8.032;2023-04-16T09:59:36;22.67;;;17.17;;
60344;SDS011;46188;52.324;8.032;2023-04-16T10:02:01;24.77;;;17.02;;
60344;SDS011;46188;52.324;8.032;2023-04-16T10:04:26;21.23;;;17.35;;
60344;SDS011;46188;52.324;8.032;2023-04-16T10:07:01;23.52;;;16.70;;
60344;SDS011;46188;52.324;8.032;2023-04-16T10:09:36;20.55;;;15.95;;
60344;SDS011;46188;52.324;8.032;2023-04-16T10:12:02;23.17;;;17.23;;
60344;SDS011;46188;52.324;8.032;2023-04-16T10:14:27;23.65;;;16.92;;
60344;SDS011;46188;52.324;8.032;2023-04-16T10:16:53;20.15;;;16.40;;
60344;SDS011;46188;52.324;8.032;2023-04-16T10:19:20;24.85;;;16.00;;
60344;SDS011;46188;52.324;8.032;2023-04-16T10:21:45;20.10;;;15.13;;
60344;SDS011;46188;52.324;8.032;2023-04-16T10:24:11;23.30;;;16.42;;
60344;SDS011;46188;52.324;8.032;2023-04-16T10:26:40;19.77;;;15.77;;
60344;SDS011;46188;52.324;8.032;2023-04-16T10:29:06;19.58;;;15.38;;
60344;SDS011;46188;52.324;8.032;2023-04-16T10:31:33;19.05;;;14.32;;
60344;SDS011;46188;52.324;8.032;2023-04-16T10:34:00;18.05;;;14.38;;
60344;SDS011;46188;52.324;8.032;2023-04-16T10:36:27;21.95;;;15.35;;
60344;SDS011;46188;52.324;8.032;2023-04-16T10:38:57;22.00;;;15.05;;
60344;SDS011;46188;52.324;8.032;2023-04-16T10:41:26;18.27;;;12.73;;
60344;SDS011;46188;52.324;8.032;2023-04-16T10:43:52;19.42;;;14.50;;
60344;SDS011;46188;52.324;8.032;2023-04-16T10:46:31;16.98;;;13.50;;
60344;SDS011;46188;52.324;8.032;2023-04-16T10:49:00;18.17;;;12.70;;
60344;SDS011;46188;52.324;8.032;2023-04-16T10:51:28;18.52;;;14.38;;
60344;SDS011;46188;52.324;8.032;2023-04-16T10:54:40;17.52;;;13.77;;
60344;SDS011;46188;52.324;8.032;2023-04-16T10:56:41;20.58;;;13.70;;
60344;SDS011;46188;52.324;8.032;2023-04-16T10:59:09;17.52;;;13.07;;
60344;SDS011;46188;52.324;8.032;2023-04-16T11:01:35;17.77;;;13.40;;
60344;SDS011;46188;52.324;8.032;2023-04-16T11:07:01;18.15;;;14.10;;
60344;SDS011;46188;52.324;8.032;2023-04-16T11:12:33;19.42;;;13.07;;
60344;SDS011;46188;52.324;8.032;2023-04-16T11:15:07;20.20;;;13.85;;
60344;SDS011;46188;52.324;8.032;2023-04-16T11:17:46;18.70;;;14.55;;
60344;SDS011;46188;52.324;8.032;2023-04-16T11:20:15;17.90;;;13.15;;
60344;SDS011;46188;52.324;8.032;2023-04-16T11:22:43;16.38;;;12.93;;
60344;SDS011;46188;52.324;8.032;2023-04-16T11:25:11;17.17;;;12.55;;
60344;SDS011;46188;52.324;8.032;2023-04-16T11:27:37;18.77;;;13.60;;
60344;SDS011;46188;52.324;8.032;2023-04-16T11:30:06;17.50;;;12.43;;
60344;SDS011;46188;52.324;8.032;2023-04-16T11:32:35;16.25;;;13.70;;
60344;SDS011;46188;52.324;8.032;2023-04-16T11:35:02;18.90;;;13.77;;
60344;SDS011;46188;52.324;8.032;2023-04-16T11:37:38;18.15;;;13.18;;
60344;SDS011;46188;52.324;8.032;2023-04-16T11:40:04;19.00;;;13.88;;
60344;SDS011;46188;52.324;8.032;2023-04-16T11:42:36;17.90;;;12.70;;
60344;SDS011;46188;52.324;8.032;2023-04-16T11:45:04;17.05;;;13.88;;
60344;SDS011;46188;52.324;8.032;2023-04-16T11:47:31;20.70;;;13.40;;
60344;SDS011;46188;52.324;8.032;2023-04-16T11:50:22;17.08;;;13.05;;
60344;SDS011;46188;52.324;8.032;2023-04-16T11:52:52;16.00;;;13.00;;
60344;SDS011;46188;52.324;8.032;2023-04-16T11:55:27;21.50;;;14.55;;
60344;SDS011;46188;52.324;8.032;2023-04-16T11:57:52;20.25;;;13.60;;
60344;SDS011;46188;52.324;8.032;2023-04-16T12:00:17;16.40;;;12.50;;
60344;SDS011;46188;52.324;8.032;2023-04-16T12:02:44;16.58;;;12.98;;
60344;SDS011;46188;52.324;8.032;2023-04-16T12:08:03;16.67;;;12.73;;
60344;SDS011;46188;52.324;8.032;2023-04-16T12:10:31;15.88;;;12.80;;
60344;SDS011;46188;52.324;8.032;2023-04-16T12:13:13;17.67;;;12.85;;
60344;SDS011;46188;52.324;8.032;2023-04-16T12:15:44;19.80;;;12.55;;
60344;SDS011;46188;52.324;8.032;2023-04-16T12:18:12;15.48;;;12.30;;
60344;SDS011;46188;52.324;8.032;2023-04-16T12:20:38;14.90;;;12.07;;
60344;SDS011;46188;52.324;8.032;2023-04-16T12:23:05;14.68;;;11.27;;
60344;SDS011;46188;52.324;8.032;2023-04-16T12:25:31;16.40;;;12.45;;
60344;SDS011;46188;52.324;8.032;2023-04-16T12:27:56;15.00;;;11.20;;
60344;SDS011;46188;52.324;8.032;2023-04-16T12:30:22;15.15;;;11.30;;
60344;SDS011;46188;52.324;8.032;2023-04-16T12:32:52;15.20;;;11.52;;
60344;SDS011;46188;52.324;8.032;2023-04-16T12:35:37;14.95;;;12.00;;
60344;SDS011;46188;52.324;8.032;2023-04-16T12:38:02;14.93;;;11.70;;
60344;SDS011;46188;52.324;8.032;2023-04-16T12:40:27;15.07;;;11.38;;
60344;SDS011;46188;52.324;8.032;2023-04-16T12:42:53;16.02;;;10.48;;
60344;SDS011;46188;52.324;8.032;2023-04-16T12:45:18;13.43;;;10.65;;
60344;SDS011;46188;52.324;8.032;2023-04-16T12:47:44;12.90;;;10.50;;
60344;SDS011;46188;52.324;8.032;2023-04-16T12:50:09;13.98;;;10.40;;
60344;SDS011;46188;52.324;8.032;2023-04-16T12:52:34;12.55;;;10.02;;
60344;SDS011;46188;52.324;8.032;2023-04-16T12:55:00;13.57;;;10.15;;
60344;SDS011;46188;52.324;8.032;2023-04-16T12:57:26;13.13;;;10.48;;
60344;SDS011;46188;52.324;8.032;2023-04-16T12:59:55;14.07;;;11.57;;
60344;SDS011;46188;52.324;8.032;2023-04-16T13:02:21;17.10;;;12.00;;
60344;SDS011;46188;52.324;8.032;2023-04-16T13:04:47;14.80;;;11.40;;
60344;SDS011;46188;52.324;8.032;2023-04-16T13:07:12;16.05;;;11.57;;
60344;SDS011;46188;52.324;8.032;2023-04-16T13:09:38;15.85;;;12.45;;
60344;SDS011;46188;52.324;8.032;2023-04-16T13:12:03;16.65;;;11.60;;
60344;SDS011;46188;52.324;8.032;2023-04-16T13:14:28;17.40;;;11.85;;
60344;SDS011;46188;52.324;8.032;2023-04-16T13:16:54;13.93;;;11.35;;
60344;SDS011;46188;52.324;8.032;2023-04-16T13:19:19;15.82;;;11.48;;
60344;SDS011;46188;52.324;8.032;2023-04-16T13:21:45;15.35;;;11.80;;
60344;SDS011;46188;52.324;8.032;2023-04-16T13:24:10;16.50;;;11.30;;
60344;SDS011;46188;52.324;8.032;2023-04-16T13:26:35;16.38;;;11.65;;
60344;SDS011;46188;52.324;8.032;2023-04-16T13:29:01;15.13;;;10.50;;
60344;SDS011;46188;52.324;8.032;2023-04-16T13:31:26;16.73;;;11.73;;
60344;SDS011;46188;52.324;8.032;2023-04-16T13:33:51;12.25;;;9.88;;
60344;SDS011;46188;52.324;8.032;2023-04-16T13:36:17;13.27;;;11.55;;
60344;SDS011;46188;52.324;8.032;2023-04-16T13:38:42;16.40;;;11.45;;
60344;SDS011;46188;52.324;8.032;2023-04-16T13:41:07;14.32;;;10.85;;
60344;SDS011;46188;52.324;8.032;2023-04-16T13:43:33;14.70;;;11.30;;
60344;SDS011;46188;52.324;8.032;2023-04-16T13:45:58;16.02;;;11.68;;
60344;SDS011;46188;52.324;8.032;2023-04-16T13:48:24;13.38;;;10.80;;
60344;SDS011;46188;52.324;8.032;2023-04-16T13:50:50;14.63;;;11.35;;
60344;SDS011;46188;52.324;8.032;2023-04-16T13:53:15;13.27;;;10.63;;
60344;SDS011;46188;52.324;8.032;2023-04-16T13:55:43;15.43;;;11.43;;
60344;SDS011;46188;52.324;8.032;2023-04-16T13:58:09;14.68;;;10.88;;
60344;SDS011;46188;52.324;8.032;2023-04-16T14:00:35;13.27;;;9.73;;
60344;SDS011;46188;52.324;8.032;2023-04-16T14:03:01;13.30;;;10.40;;
60344;SDS011;46188;52.324;8.032;2023-04-16T14:05:26;10.45;;;9.35;;
60344;SDS011;46188;52.324;8.032;2023-04-16T14:07:52;16.95;;;10.88;;
60344;SDS011;46188;52.324;8.032;2023-04-16T14:10:17;15.60;;;10.85;;
60344;SDS011;46188;52.324;8.032;2023-04-16T14:12:43;12.75;;;10.73;;
60344;SDS011;46188;52.324;8.032;2023-04-16T14:15:09;12.35;;;9.52;;
60344;SDS011;46188;52.324;8.032;2023-04-16T14:17:34;11.80;;;9.60;;
60344;SDS011;46188;52.324;8.032;2023-04-16T14:20:01;15.48;;;11.40;;
60344;SDS011;46188;52.324;8.032;2023-04-16T14:22:28;18.80;;;11.15;;
60344;SDS011;46188;52.324;8.032;2023-04-16T14:24:53;13.13;;;10.68;;